Bellingham International Airport


Codes: KBLI/BLI
Name: Bellingham International Airport
City: Bellingham
Country: United States
Elevation: 170 ft.
Wikipedia:

Photos at Bellingham International Airport


   Photos courtesy of SpottingLog. You can add your own sightings and photos by signing up for a free trial today.



No photos found.

Weather at Bellingham International Airport


Time (UTC)DescriptionTempratureWindCloud coverageVisibilityPressureHumidity
16-Jun-2024 03:00Light Rain13°C9 mph, S47%10000m1017hPa76%
16-Jun-2024 06:00Light Rain11°C9 mph, S60%10000m1018hPa81%
16-Jun-2024 09:00Overcast Clouds8°C9 mph, S100%10000m1019hPa88%
16-Jun-2024 12:00Overcast Clouds9°C13 mph, S100%10000m1019hPa90%
16-Jun-2024 15:00Light Rain9°C9 mph, S100%9717m1018hPa92%
16-Jun-2024 18:00Light Rain9°C7 mph, S100%10000m1018hPa94%
16-Jun-2024 21:00Light Rain9°C2 mph, SE100%10000m1018hPa91%
17-Jun-2024 00:00Overcast Clouds11°C4 mph, NE100%10000m1017hPa79%
17-Jun-2024 03:00Overcast Clouds10°C4 mph, NE100%10000m1016hPa84%
17-Jun-2024 06:00Overcast Clouds8°C4 mph, NE97%10000m1016hPa91%
17-Jun-2024 09:00Broken Clouds7°C2 mph, E53%10000m1016hPa90%
17-Jun-2024 12:00Scattered Clouds6°C2 mph, E42%10000m1017hPa89%
17-Jun-2024 15:00Broken Clouds9°C4 mph, SE74%10000m1017hPa84%
17-Jun-2024 18:00Overcast Clouds12°C7 mph, S87%10000m1018hPa77%
17-Jun-2024 21:00Overcast Clouds13°C7 mph, S97%10000m1018hPa73%
18-Jun-2024 00:00Overcast Clouds13°C7 mph, S96%10000m1018hPa72%
18-Jun-2024 03:00Overcast Clouds12°C4 mph, SE99%10000m1018hPa78%
18-Jun-2024 06:00Overcast Clouds12°C4 mph, SE100%10000m1018hPa81%
18-Jun-2024 09:00Overcast Clouds11°C7 mph, SE98%10000m1018hPa83%
18-Jun-2024 12:00Overcast Clouds11°C4 mph, SE98%10000m1018hPa86%
18-Jun-2024 15:00Overcast Clouds12°C4 mph, SE87%10000m1018hPa78%
18-Jun-2024 18:00Broken Clouds14°C4 mph, SW63%10000m1017hPa70%
18-Jun-2024 21:00Scattered Clouds16°C4 mph, SW46%10000m1016hPa65%
19-Jun-2024 00:00Few Clouds16°C4 mph, W22%10000m1015hPa63%
19-Jun-2024 03:00Clear Sky14°C2 mph, SW0%10000m1014hPa75%
19-Jun-2024 06:00Clear Sky11°C4 mph, SE0%10000m1015hPa85%
19-Jun-2024 09:00Clear Sky10°C2 mph, E0%10000m1015hPa90%
19-Jun-2024 12:00Clear Sky10°C2 mph, NE0%10000m1015hPa91%
19-Jun-2024 15:00Clear Sky14°C2 mph, N1%10000m1015hPa78%
19-Jun-2024 18:00Clear Sky17°C7 mph, NW3%10000m1015hPa65%
19-Jun-2024 21:00Clear Sky17°C9 mph, NW4%893m1015hPa66%
20-Jun-2024 00:00Few Clouds18°C7 mph, NW12%3409m1013hPa66%
20-Jun-2024 03:00Clear Sky16°C4 mph, NW4%10000m1013hPa82%
20-Jun-2024 06:00Clear Sky13°C2 mph, SE2%10000m1014hPa86%
20-Jun-2024 09:00Clear Sky13°C2 mph, NE0%10000m1014hPa85%
20-Jun-2024 12:00Clear Sky12°C4 mph, NE0%10000m1014hPa87%
20-Jun-2024 15:00Clear Sky16°C2 mph, N0%10000m1015hPa73%
20-Jun-2024 18:00Clear Sky19°C7 mph, NW0%10000m1014hPa61%
20-Jun-2024 21:00Clear Sky19°C7 mph, NW7%2315m1014hPa61%
21-Jun-2024 00:00Scattered Clouds20°C4 mph, NW33%10000m1013hPa59%